Time;durP1;ratioP1;P1;durP2;ratioP2;P2;SDS_P1;SDS_P2;PMS_P1;PMS_P2;Temp;Humidity;BMP_temperature;BMP_pressure;BME280_temperature;BME280_humidity;BME280_pressure;Samples;Min_cycle;Max_cycle;Signal;HPM_P1;HPM_P2
2022/10/24 00:01:32;;;;;;;6.57;1.58;;;18.70;99.90;;;;;;5087724;28;20480;-69
2022/10/24 00:03:58;;;;;;;8.63;1.48;;;18.70;99.90;;;;;;5090468;28;20439;-69
2022/10/24 00:06:23;;;;;;;4.85;1.30;;;18.70;99.90;;;;;;5090719;28;20031;-68
2022/10/24 00:08:50;;;;;;;5.13;1.50;;;18.60;99.90;;;;;;5090269;28;20469;-69
2022/10/24 00:11:20;;;;;;;10.38;1.77;;;18.60;99.90;;;;;;5090037;28;20098;-69
2022/10/24 00:13:45;;;;;;;5.40;1.50;;;18.60;99.90;;;;;;5084995;28;20040;-69
2022/10/24 00:16:12;;;;;;;9.75;1.67;;;18.50;99.90;;;;;;5084458;28;20028;-69
2022/10/24 00:18:38;;;;;;;11.77;1.70;;;18.50;99.90;;;;;;5090533;28;20035;-69
2022/10/24 00:21:05;;;;;;;2.97;1.30;;;18.40;99.90;;;;;;5079644;28;20032;-69
2022/10/24 00:23:30;;;;;;;6.47;1.80;;;18.40;99.90;;;;;;5090577;28;20040;-69
2022/10/24 00:26:00;;;;;;;7.75;1.70;;;18.30;99.90;;;;;;5090491;28;20059;-69
2022/10/24 00:28:27;;;;;;;7.45;2.53;;;18.30;99.90;;;;;;5092098;28;20032;-69
2022/10/24 00:30:53;;;;;;;5.00;1.42;;;18.20;99.90;;;;;;5094399;28;20378;-69
2022/10/24 00:33:18;;;;;;;8.35;1.80;;;18.30;99.90;;;;;;5092335;28;20063;-69
2022/10/24 00:35:44;;;;;;;7.28;1.15;;;18.20;99.90;;;;;;5087203;28;20047;-69
2022/10/24 00:38:09;;;;;;;3.15;1.42;;;18.20;99.90;;;;;;5065941;28;20044;-69
2022/10/24 00:40:35;;;;;;;6.85;2.00;;;18.20;99.90;;;;;;5086020;28;20028;-69
2022/10/24 00:43:01;;;;;;;8.32;1.73;;;18.20;99.90;;;;;;5086192;28;20039;-69
2022/10/24 00:45:41;;;;;;;9.35;1.90;;;18.20;99.90;;;;;;5088073;28;20024;-69
2022/10/24 00:48:19;;;;;;;5.03;1.15;;;18.20;99.90;;;;;;5085059;28;20043;-68
2022/10/24 00:50:48;;;;;;;10.40;1.75;;;18.00;99.90;;;;;;5087538;28;20048;-68
2022/10/24 00:53:15;;;;;;;5.55;1.30;;;18.00;99.90;;;;;;5086849;28;20423;-68
2022/10/24 00:55:41;;;;;;;6.07;1.42;;;18.00;99.90;;;;;;5085365;28;20383;-69
2022/10/24 00:58:07;;;;;;;7.15;1.42;;;17.90;99.90;;;;;;5085627;28;20060;-69
2022/10/24 01:00:33;;;;;;;6.97;1.60;;;17.90;99.90;;;;;;5084510;28;20067;-68
2022/10/24 01:03:00;;;;;;;9.30;2.15;;;17.90;99.90;;;;;;5088379;28;20214;-69
2022/10/24 01:05:30;;;;;;;5.15;1.45;;;17.90;99.90;;;;;;5085927;28;20056;-68
2022/10/24 01:08:27;;;;;;;10.70;1.73;;;17.90;99.90;;;;;;5085598;28;20024;-69
2022/10/24 01:11:01;;;;;;;6.63;1.67;;;17.90;99.90;;;;;;5083829;28;20488;-69
2022/10/24 01:13:54;;;;;;;10.90;1.98;;;17.90;99.90;;;;;;5080938;28;20029;-69
2022/10/24 01:16:33;;;;;;;7.57;1.83;;;17.90;99.90;;;;;;5083896;28;20058;-69
2022/10/24 01:19:36;;;;;;;6.93;2.35;;;17.90;99.90;;;;;;5084276;28;20048;-69
2022/10/24 01:22:06;;;;;;;7.13;1.70;;;18.00;99.90;;;;;;5087533;28;20035;-69
2022/10/24 01:24:41;;;;;;;;;;;18.00;99.90;;;;;;5087466;28;20024;-69
2022/10/24 01:27:28;;;;;;;11.25;2.45;;;18.00;99.90;;;;;;5085887;28;20284;-69
2022/10/24 01:30:14;;;;;;;6.05;2.25;;;18.00;99.90;;;;;;5083353;28;20043;-68
2022/10/24 01:32:51;;;;;;;8.45;1.65;;;18.00;99.90;;;;;;5085399;28;20029;-68
2022/10/24 01:35:39;;;;;;;11.27;1.75;;;18.10;99.90;;;;;;5082975;28;20104;-69
2022/10/24 01:38:07;;;;;;;8.18;1.98;;;18.10;99.90;;;;;;5083298;28;20082;-69
2022/10/24 01:40:44;;;;;;;8.43;1.55;;;18.00;99.90;;;;;;5083999;28;20020;-68
2022/10/24 01:43:12;;;;;;;6.70;1.70;;;18.00;99.90;;;;;;5087080;28;20044;-69
2022/10/24 01:45:42;;;;;;;6.40;1.73;;;18.00;99.90;;;;;;5085659;28;20028;-69
2022/10/24 01:48:13;;;;;;;12.70;2.05;;;17.90;99.90;;;;;;5081370;28;20036;-69
2022/10/24 01:50:41;;;;;;;8.95;2.13;;;17.90;99.90;;;;;;5083888;28;20528;-69
2022/10/24 01:53:08;;;;;;;9.65;2.15;;;17.80;99.90;;;;;;5087898;28;20064;-68
2022/10/24 01:55:36;;;;;;;7.45;2.28;;;17.80;99.90;;;;;;5081955;28;20034;-68
2022/10/24 01:58:02;;;;;;;8.02;2.10;;;17.70;99.90;;;;;;5091844;28;20020;-69
2022/10/24 02:00:28;;;;;;;13.40;2.28;;;17.70;99.90;;;;;;5092946;28;20350;-68
2022/10/24 02:02:59;;;;;;;7.85;1.65;;;17.70;99.90;;;;;;5093338;28;20055;-68
2022/10/24 02:05:32;;;;;;;7.53;2.03;;;17.70;99.90;;;;;;5082714;28;20529;-68
2022/10/24 02:08:03;;;;;;;10.38;2.05;;;17.70;99.90;;;;;;5092843;28;20020;-70
2022/10/24 02:10:34;;;;;;;5.72;2.03;;;17.70;99.90;;;;;;5093119;28;20109;-68
2022/10/24 02:13:13;;;;;;;5.00;1.20;;;17.60;99.90;;;;;;5091189;28;20546;-68
2022/10/24 02:15:46;;;;;;;4.50;1.42;;;17.50;99.90;;;;;;5092887;28;20073;-68
2022/10/24 02:18:11;;;;;;;8.80;2.08;;;17.40;99.90;;;;;;5088723;28;20039;-68
2022/10/24 02:20:47;;;;;;;8.73;1.73;;;17.40;99.90;;;;;;5092320;28;20024;-68
2022/10/24 02:23:25;;;;;;;10.05;2.30;;;17.30;99.90;;;;;;5091773;28;20028;-68
2022/10/24 02:25:53;;;;;;;5.60;1.50;;;17.30;99.90;;;;;;5092450;28;20154;-68
2022/10/24 02:28:23;;;;;;;8.90;1.75;;;17.20;99.90;;;;;;5091020;28;20031;-68
2022/10/24 02:31:06;;;;;;;7.32;1.73;;;17.30;99.90;;;;;;5092796;28;20032;-68
2022/10/24 02:33:34;;;;;;;9.35;1.65;;;17.30;99.90;;;;;;5092234;28;20401;-68
2022/10/24 02:36:02;;;;;;;8.38;2.05;;;17.20;99.90;;;;;;5091545;28;20060;-68
2022/10/24 02:38:39;;;;;;;9.32;1.73;;;17.20;99.90;;;;;;5092325;28;20024;-68
2022/10/24 02:41:09;;;;;;;9.40;1.95;;;17.20;99.90;;;;;;5091841;28;20024;-68
2022/10/24 02:43:35;;;;;;;7.78;2.03;;;17.20;99.90;;;;;;5091919;28;20031;-68
2022/10/24 02:46:02;;;;;;;10.30;1.75;;;17.20;99.90;;;;;;5091434;28;20028;-69
2022/10/24 02:48:36;;;;;;;10.68;2.08;;;17.20;99.90;;;;;;5092029;28;20032;-68
2022/10/24 02:51:03;;;;;;;9.25;2.55;;;17.20;99.90;;;;;;5077299;28;20044;-68
2022/10/24 02:53:29;;;;;;;11.68;2.30;;;17.10;99.90;;;;;;5092168;28;20028;-68
2022/10/24 02:55:55;;;;;;;9.40;1.90;;;17.10;99.90;;;;;;5092316;28;20024;-68
2022/10/24 02:58:20;;;;;;;7.55;1.85;;;17.00;99.90;;;;;;5091144;28;20020;-68
2022/10/24 03:00:46;;;;;;;12.02;2.55;;;17.00;99.90;;;;;;5092190;28;20028;-68
2022/10/24 03:03:12;;;;;;;11.07;2.10;;;16.90;99.90;;;;;;5086350;28;20680;-68
2022/10/24 03:05:37;;;;;;;7.35;2.13;;;16.90;99.90;;;;;;5092574;28;20036;-68
2022/10/24 03:08:03;;;;;;;9.70;2.28;;;16.90;99.90;;;;;;5090769;28;20028;-68
2022/10/24 03:10:29;;;;;;;6.30;1.92;;;17.00;99.90;;;;;;5092408;28;20230;-68
2022/10/24 03:12:54;;;;;;;8.77;2.72;;;16.90;99.90;;;;;;5092092;28;20527;-68
2022/10/24 03:15:20;;;;;;;7.15;2.33;;;16.90;99.90;;;;;;5091216;28;20032;-68
2022/10/24 03:17:48;;;;;;;8.85;2.10;;;16.90;99.90;;;;;;5091945;28;20103;-68
2022/10/24 03:20:14;;;;;;;12.95;2.40;;;16.90;99.90;;;;;;5083627;28;20086;-68
2022/10/24 03:22:40;;;;;;;8.82;2.70;;;17.00;99.90;;;;;;5091933;28;20024;-68
2022/10/24 03:25:06;;;;;;;11.85;2.30;;;17.10;99.90;;;;;;5090607;28;20039;-68
2022/10/24 03:27:32;;;;;;;13.35;2.92;;;17.10;99.90;;;;;;5092186;28;20035;-68
2022/10/24 03:29:59;;;;;;;13.05;3.05;;;17.10;99.90;;;;;;5091273;28;20028;-68
2022/10/24 03:32:25;;;;;;;13.40;3.20;;;17.10;99.90;;;;;;5087804;28;20157;-68
2022/10/24 03:34:50;;;;;;;12.15;2.65;;;17.10;99.90;;;;;;5089552;28;20028;-68
2022/10/24 03:37:16;;;;;;;12.00;2.80;;;17.10;99.90;;;;;;5090770;28;20465;-68
2022/10/24 03:39:42;;;;;;;18.40;3.40;;;17.10;99.90;;;;;;5091803;28;20035;-68
2022/10/24 03:42:07;;;;;;;12.70;2.75;;;17.10;99.90;;;;;;5090844;28;20035;-68
2022/10/24 03:44:33;;;;;;;15.85;3.63;;;17.10;99.90;;;;;;5091396;28;20039;-68
2022/10/24 03:46:58;;;;;;;8.82;2.65;;;17.00;99.90;;;;;;5091474;28;20468;-69
2022/10/24 03:49:24;;;;;;;14.60;2.78;;;17.00;99.90;;;;;;5084329;28;20100;-68
2022/10/24 03:51:50;;;;;;;16.92;2.72;;;17.00;99.90;;;;;;5084717;28;20028;-68
2022/10/24 03:54:16;;;;;;;13.15;2.63;;;17.00;99.90;;;;;;5090170;28;20131;-69
2022/10/24 03:56:42;;;;;;;13.98;2.88;;;16.90;99.90;;;;;;5091553;28;20031;-68
2022/10/24 03:59:08;;;;;;;17.52;3.00;;;16.90;99.90;;;;;;5090422;28;20024;-68
2022/10/24 04:01:33;;;;;;;12.45;2.38;;;16.90;99.90;;;;;;5091185;28;20028;-69
2022/10/24 04:03:59;;;;;;;13.65;2.70;;;16.80;99.90;;;;;;5089466;28;20121;-68
2022/10/24 04:06:24;;;;;;;10.65;2.30;;;16.80;99.90;;;;;;5091778;28;20029;-68
2022/10/24 04:08:50;;;;;;;6.78;2.60;;;16.80;99.90;;;;;;5085533;28;20111;-69
2022/10/24 04:11:16;;;;;;;11.90;3.00;;;16.70;99.90;;;;;;5080022;28;20036;-68
2022/10/24 04:13:41;;;;;;;19.67;3.40;;;16.70;99.90;;;;;;5086771;28;20016;-68
2022/10/24 04:16:07;;;;;;;12.95;3.10;;;16.70;99.90;;;;;;5090019;28;20032;-68
2022/10/24 04:18:33;;;;;;;7.03;2.53;;;16.60;99.90;;;;;;5090508;28;20436;-68
2022/10/24 04:20:59;;;;;;;18.33;2.92;;;16.60;99.90;;;;;;5088785;28;20092;-67
2022/10/24 04:23:26;;;;;;;12.95;2.45;;;16.60;99.90;;;;;;5089830;28;20036;-68
2022/10/24 04:25:52;;;;;;;12.38;2.80;;;16.60;99.90;;;;;;5084077;28;20095;-68
2022/10/24 04:28:17;;;;;;;8.68;2.63;;;16.60;99.90;;;;;;5086612;28;20031;-68
2022/10/24 04:30:43;;;;;;;8.38;2.20;;;16.60;99.90;;;;;;5090912;28;20035;-68
2022/10/24 04:33:09;;;;;;;8.98;2.42;;;16.60;99.90;;;;;;5088892;28;20473;-68
2022/10/24 04:35:35;;;;;;;11.20;2.88;;;16.60;99.90;;;;;;5090739;28;20035;-68
2022/10/24 04:38:00;;;;;;;8.55;2.70;;;16.60;99.90;;;;;;5089993;28;20039;-68
2022/10/24 04:40:26;;;;;;;9.02;2.40;;;16.50;99.90;;;;;;5090379;28;20028;-68
2022/10/24 04:42:52;;;;;;;10.38;2.20;;;16.50;99.90;;;;;;5090289;28;20107;-68
2022/10/24 04:45:17;;;;;;;11.93;2.72;;;16.50;99.90;;;;;;5089623;28;20521;-68
2022/10/24 04:47:43;;;;;;;11.25;2.72;;;16.50;99.90;;;;;;5090233;28;20044;-68
2022/10/24 04:50:09;;;;;;;6.97;2.25;;;16.40;99.90;;;;;;5088904;28;20054;-68
2022/10/24 04:52:34;;;;;;;12.20;2.70;;;16.40;99.90;;;;;;5090454;28;20461;-68
2022/10/24 04:55:00;;;;;;;11.15;2.97;;;16.50;99.90;;;;;;5089311;28;20062;-68
2022/10/24 04:57:25;;;;;;;12.85;3.00;;;16.50;99.90;;;;;;5088515;28;20035;-68
2022/10/24 04:59:52;;;;;;;9.88;2.40;;;16.50;99.90;;;;;;5071932;28;20083;-69
2022/10/24 05:02:18;;;;;;;8.02;2.15;;;16.60;99.90;;;;;;5089101;28;20511;-69
2022/10/24 05:04:43;;;;;;;12.68;2.53;;;16.60;99.90;;;;;;5089474;28;20034;-69
2022/10/24 05:07:09;;;;;;;13.38;3.00;;;16.70;99.90;;;;;;5089390;28;20524;-69
2022/10/24 05:09:34;;;;;;;13.48;2.88;;;16.80;99.90;;;;;;5089917;28;20032;-69
2022/10/24 05:12:01;;;;;;;9.30;2.67;;;16.80;99.90;;;;;;5090020;28;20031;-69
2022/10/24 05:14:26;;;;;;;10.48;3.13;;;16.80;99.90;;;;;;5091371;28;20052;-69
2022/10/24 05:16:52;;;;;;;14.23;3.38;;;16.80;99.90;;;;;;5094836;28;20117;-68
2022/10/24 05:19:18;;;;;;;10.48;3.08;;;16.80;99.90;;;;;;5093216;28;20636;-68
2022/10/24 05:21:44;;;;;;;10.68;3.22;;;16.80;99.90;;;;;;5090137;28;20117;-69
2022/10/24 05:24:10;;;;;;;14.27;2.90;;;16.80;99.90;;;;;;5087757;28;20500;-67
2022/10/24 05:26:35;;;;;;;11.95;3.50;;;16.90;99.90;;;;;;5094145;28;20028;-69
2022/10/24 05:29:01;;;;;;;10.57;2.17;;;17.00;99.90;;;;;;5093257;28;20035;-69
2022/10/24 05:31:26;;;;;;;11.90;2.90;;;17.00;99.90;;;;;;5087367;28;20039;-69
2022/10/24 05:33:52;;;;;;;11.73;3.08;;;17.10;99.90;;;;;;5089832;28;20040;-70
2022/10/24 05:36:18;;;;;;;8.95;2.47;;;17.20;99.90;;;;;;5085951;28;20039;-69
2022/10/24 05:38:43;;;;;;;12.13;3.28;;;17.20;99.90;;;;;;5093518;28;20137;-69
2022/10/24 05:41:09;;;;;;;11.32;2.70;;;17.20;99.90;;;;;;5064506;28;20125;-70
2022/10/24 05:43:34;;;;;;;11.43;3.03;;;17.20;99.90;;;;;;5089358;28;20047;-70
2022/10/24 05:46:00;;;;;;;11.82;2.28;;;17.20;99.90;;;;;;5090406;28;20039;-69
2022/10/24 05:48:26;;;;;;;12.02;2.58;;;17.20;99.90;;;;;;5087337;28;20392;-68
2022/10/24 05:50:58;;;;;;;8.38;1.90;;;17.20;99.90;;;;;;5085378;28;20048;-70
2022/10/24 05:53:25;;;;;;;10.85;2.20;;;17.20;99.90;;;;;;5089707;28;20032;-69
2022/10/24 05:55:50;;;;;;;9.45;3.03;;;17.20;99.90;;;;;;5091045;28;20107;-68
2022/10/24 05:58:20;;;;;;;10.70;2.15;;;17.30;99.90;;;;;;5084848;28;20047;-69
2022/10/24 06:00:46;;;;;;;10.45;2.25;;;17.30;99.90;;;;;;5088526;28;20032;-69
2022/10/24 06:03:12;;;;;;;11.55;3.00;;;17.30;99.90;;;;;;5090248;28;20349;-69
2022/10/24 06:05:37;;;;;;;16.50;2.97;;;17.30;99.90;;;;;;5087376;28;20021;-69
2022/10/24 06:08:03;;;;;;;11.40;3.20;;;17.30;99.90;;;;;;5092102;28;20028;-69
2022/10/24 06:10:28;;;;;;;14.00;3.63;;;17.20;99.90;;;;;;5092399;28;20089;-68
2022/10/24 06:12:54;;;;;;;12.68;3.20;;;16.60;99.90;;;;;;5093014;28;20036;-68
2022/10/24 06:15:20;;;;;;;12.63;3.00;;;16.00;99.90;;;;;;5091831;28;20099;-68
2022/10/24 06:17:45;;;;;;;11.18;2.67;;;15.40;99.90;;;;;;5092944;28;20023;-68
2022/10/24 06:20:11;;;;;;;9.05;2.63;;;14.80;99.90;;;;;;5086793;28;20020;-69
2022/10/24 06:22:37;;;;;;;7.43;2.58;;;14.70;99.90;;;;;;5088459;28;20035;-68
2022/10/24 06:25:04;;;;;;;13.38;2.85;;;14.50;99.90;;;;;;5091599;28;20027;-69
2022/10/24 06:27:32;;;;;;;10.55;3.10;;;14.40;99.90;;;;;;5091922;28;20031;-68
2022/10/24 06:29:57;;;;;;;8.25;2.88;;;14.30;99.90;;;;;;5094941;28;20036;-68
2022/10/24 06:32:23;;;;;;;12.32;3.08;;;14.30;99.90;;;;;;5092301;28;20449;-68
2022/10/24 06:34:49;;;;;;;9.57;2.47;;;14.30;99.90;;;;;;5073058;28;20479;-68
2022/10/24 06:37:15;;;;;;;10.10;3.30;;;14.30;99.90;;;;;;5083758;28;20028;-68
2022/10/24 06:39:41;;;;;;;9.50;3.05;;;14.20;99.90;;;;;;5092218;28;20157;-68
2022/10/24 06:42:06;;;;;;;8.13;2.67;;;14.20;99.90;;;;;;5090423;28;20032;-68
2022/10/24 06:44:32;;;;;;;10.82;2.88;;;14.20;99.90;;;;;;5091755;28;20051;-68
2022/10/24 06:46:57;;;;;;;9.38;3.00;;;14.20;99.90;;;;;;5091365;28;20033;-69
2022/10/24 06:49:23;;;;;;;7.88;3.33;;;14.10;99.90;;;;;;5085400;28;20024;-69
2022/10/24 06:51:49;;;;;;;12.68;2.90;;;14.20;99.90;;;;;;5090128;28;20095;-69
2022/10/24 06:54:15;;;;;;;12.70;3.17;;;14.20;99.90;;;;;;5090656;28;20024;-68
2022/10/24 06:56:41;;;;;;;14.48;2.97;;;14.10;99.90;;;;;;5091899;28;20028;-67
2022/10/24 06:59:15;;;;;;;10.43;2.85;;;14.10;99.90;;;;;;5090678;28;20085;-69
2022/10/24 07:01:41;;;;;;;11.50;2.80;;;14.20;99.90;;;;;;5088381;28;20036;-68
2022/10/24 07:04:08;;;;;;;9.60;2.88;;;14.20;99.90;;;;;;5090208;28;20032;-68
2022/10/24 07:06:33;;;;;;;11.20;3.17;;;14.30;99.90;;;;;;5091139;28;20157;-68
2022/10/24 07:09:00;;;;;;;11.38;2.95;;;14.30;99.90;;;;;;5090352;28;20422;-69
2022/10/24 07:11:26;;;;;;;5.78;2.65;;;14.30;99.90;;;;;;5072794;28;20028;-69
2022/10/24 07:13:52;;;;;;;8.00;2.97;;;14.30;99.90;;;;;;5091002;28;20377;-69
2022/10/24 07:16:19;;;;;;;13.15;3.35;;;14.30;99.90;;;;;;5090223;28;20020;-69
2022/10/24 07:18:45;;;;;;;11.95;3.60;;;14.30;99.90;;;;;;5091140;28;20127;-69
2022/10/24 07:21:22;;;;;;;11.02;3.40;;;14.30;99.90;;;;;;5090189;28;20028;-69
2022/10/24 07:23:50;;;;;;;13.70;3.22;;;14.30;99.90;;;;;;5090854;28;20442;-69
2022/10/24 07:26:17;;;;;;;13.02;3.63;;;14.30;99.90;;;;;;5082866;28;20130;-69
2022/10/24 07:28:45;;;;;;;12.43;3.63;;;14.40;99.90;;;;;;5085649;28;20473;-69
2022/10/24 07:31:18;;;;;;;14.27;3.20;;;14.30;99.90;;;;;;5087825;28;20127;-68
2022/10/24 07:33:44;;;;;;;13.45;3.83;;;14.30;99.90;;;;;;5083995;28;20111;-68
2022/10/24 07:36:09;;;;;;;12.15;3.92;;;14.40;99.90;;;;;;5086117;28;20132;-69
2022/10/24 07:38:36;;;;;;;8.77;3.67;;;14.40;99.90;;;;;;5085866;28;20060;-69
2022/10/24 07:41:05;;;;;;;11.13;3.17;;;14.40;99.90;;;;;;5085178;28;20036;-69
2022/10/24 07:43:31;;;;;;;12.80;3.80;;;14.40;99.90;;;;;;5081063;28;20055;-69
2022/10/24 07:45:56;;;;;;;7.80;3.17;;;14.40;99.90;;;;;;5085741;28;20476;-68
2022/10/24 07:48:22;;;;;;;7.60;3.00;;;14.50;99.90;;;;;;5085120;28;20028;-68
2022/10/24 07:50:48;;;;;;;13.82;3.45;;;14.50;99.90;;;;;;5086335;28;20350;-68
2022/10/24 07:53:14;;;;;;;9.73;2.90;;;14.50;99.90;;;;;;5086019;28;20032;-69
2022/10/24 07:55:41;;;;;;;12.57;3.67;;;14.60;99.90;;;;;;5083954;28;20028;-68
2022/10/24 07:58:07;;;;;;;7.60;2.78;;;14.60;99.90;;;;;;5083459;28;20040;-68
2022/10/24 08:00:33;;;;;;;6.95;3.00;;;14.60;99.90;;;;;;5085270;28;20538;-68
2022/10/24 08:02:59;;;;;;;10.73;3.05;;;14.60;99.90;;;;;;5086024;28;20020;-68
2022/10/24 08:05:25;;;;;;;10.10;2.40;;;14.60;99.90;;;;;;5081226;28;20480;-68
2022/10/24 08:07:50;;;;;;;8.30;2.95;;;14.70;99.90;;;;;;5087059;28;20024;-68
2022/10/24 08:10:16;;;;;;;7.57;2.42;;;14.70;99.90;;;;;;5083591;28;20032;-68
2022/10/24 08:12:42;;;;;;;10.05;2.65;;;14.80;99.90;;;;;;5083131;28;20024;-68
2022/10/24 08:15:09;;;;;;;9.35;2.30;;;14.90;99.90;;;;;;5081407;28;20024;-69
2022/10/24 08:17:35;;;;;;;7.15;2.60;;;14.90;99.90;;;;;;5084411;28;20499;-68
2022/10/24 08:20:06;;;;;;;5.88;2.30;;;14.90;99.90;;;;;;5081179;28;20104;-68
2022/10/24 08:22:35;;;;;;;9.20;2.00;;;15.00;99.90;;;;;;5086691;28;20035;-68
2022/10/24 08:25:01;;;;;;;13.60;2.95;;;15.00;99.90;;;;;;5084859;28;20063;-68
2022/10/24 08:27:28;;;;;;;7.88;2.15;;;15.00;99.90;;;;;;5084864;28;20032;-68
2022/10/24 08:29:53;;;;;;;7.43;2.00;;;15.00;99.90;;;;;;5083465;28;20047;-68
2022/10/24 08:32:19;;;;;;;12.80;2.17;;;15.00;99.90;;;;;;5083896;28;20032;-68
2022/10/24 08:34:45;;;;;;;5.55;2.22;;;14.90;99.90;;;;;;5082348;28;20373;-68
2022/10/24 08:37:10;;;;;;;6.45;2.22;;;15.00;99.90;;;;;;5084181;28;20052;-68
2022/10/24 08:39:37;;;;;;;9.68;2.90;;;15.00;99.90;;;;;;5083597;28;20542;-68
2022/10/24 08:42:06;;;;;;;5.45;2.03;;;15.00;99.90;;;;;;5084424;28;20327;-68
2022/10/24 08:44:38;;;;;;;9.07;2.30;;;15.00;99.90;;;;;;5082989;28;20078;-68
2022/10/24 08:47:12;;;;;;;9.48;3.17;;;15.10;99.90;;;;;;5083318;28;20036;-68
2022/10/24 08:49:59;;;;;;;10.27;2.63;;;15.10;99.90;;;;;;5084943;28;20105;-68
2022/10/24 08:52:45;;;;;;;9.80;2.92;;;15.20;99.90;;;;;;5086785;28;21119;-68
2022/10/24 08:55:19;;;;;;;7.25;2.58;;;15.30;99.90;;;;;;5087505;28;20024;-68
2022/10/24 08:57:51;;;;;;;6.97;2.88;;;15.40;99.90;;;;;;5089524;28;20028;-68
2022/10/24 09:00:23;;;;;;;9.93;3.08;;;15.40;99.90;;;;;;5086968;28;20032;-68
2022/10/24 09:03:25;;;;;;;12.38;3.72;;;15.40;99.90;;;;;;5089604;28;21347;-68
2022/10/24 09:05:57;;;;;;;8.23;2.80;;;15.40;99.90;;;;;;5087533;28;20028;-68
2022/10/24 09:08:40;;;;;;;9.75;2.15;;;15.40;99.90;;;;;;5086089;28;20065;-68
2022/10/24 09:11:06;;;;;;;8.48;2.15;;;15.50;99.90;;;;;;5088405;28;20093;-69
2022/10/24 09:13:36;;;;;;;15.52;2.60;;;15.50;99.90;;;;;;5089142;28;20043;-68
2022/10/24 09:16:02;;;;;;;6.50;2.67;;;15.50;99.90;;;;;;5087996;28;20023;-68
2022/10/24 09:18:39;;;;;;;12.88;3.25;;;15.50;99.90;;;;;;5087702;28;20031;-68
2022/10/24 09:21:08;;;;;;;9.27;2.33;;;15.60;99.90;;;;;;5085091;28;20046;-68
2022/10/24 09:23:36;;;;;;;9.10;2.20;;;15.60;99.90;;;;;;5085149;28;20109;-68
2022/10/24 09:26:04;;;;;;;6.55;2.10;;;15.60;99.90;;;;;;5088504;28;20020;-68
2022/10/24 09:28:34;;;;;;;7.68;2.90;;;15.60;99.90;;;;;;5086470;28;20032;-68
2022/10/24 09:31:09;;;;;;;10.55;2.38;;;15.70;99.90;;;;;;5084849;28;20059;-68
2022/10/24 09:33:39;;;;;;;7.18;2.30;;;15.80;99.90;;;;;;5088781;28;20539;-68
2022/10/24 09:36:10;;;;;;;7.57;2.10;;;15.80;99.90;;;;;;5086052;28;20082;-68
2022/10/24 09:38:38;;;;;;;10.40;2.47;;;15.70;99.90;;;;;;5087732;28;20448;-68
2022/10/24 09:41:35;;;;;;;8.23;2.50;;;15.70;99.90;;;;;;5084662;28;20060;-68
2022/10/24 09:44:03;;;;;;;8.77;2.30;;;15.70;99.90;;;;;;5059163;28;20044;-68
2022/10/24 09:46:37;;;;;;;5.43;2.20;;;15.80;99.90;;;;;;5067148;28;20032;-69
2022/10/24 09:49:11;;;;;;;9.05;2.22;;;15.70;99.90;;;;;;5086000;28;20048;-68
2022/10/24 09:51:40;;;;;;;8.90;3.17;;;15.70;99.90;;;;;;5087650;28;20063;-69
2022/10/24 09:54:18;;;;;;;6.82;2.47;;;15.70;99.90;;;;;;5085437;28;20392;-68
2022/10/24 09:56:53;;;;;;;10.65;2.45;;;15.70;99.90;;;;;;5086213;28;20068;-68
2022/10/24 09:59:35;;;;;;;6.93;2.17;;;15.60;99.90;;;;;;5084600;28;20050;-68
2022/10/24 10:02:12;;;;;;;11.38;2.05;;;15.70;99.90;;;;;;5088707;28;20024;-68
2022/10/24 10:04:38;;;;;;;9.95;2.17;;;15.70;99.90;;;;;;5087987;28;20024;-68
2022/10/24 10:07:25;;;;;;;4.95;2.17;;;15.70;99.90;;;;;;5086952;28;20059;-68
2022/10/24 10:09:53;;;;;;;7.80;2.28;;;15.80;99.90;;;;;;5086157;28;20122;-68
2022/10/24 10:12:27;;;;;;;7.82;2.17;;;15.80;99.90;;;;;;5085857;28;20046;-68
2022/10/24 10:14:54;;;;;;;11.80;2.53;;;15.90;99.90;;;;;;5082983;28;20029;-68
2022/10/24 10:17:25;;;;;;;8.50;2.40;;;16.00;99.90;;;;;;5082680;28;20024;-68
2022/10/24 10:19:53;;;;;;;14.77;2.35;;;16.00;99.90;;;;;;5084545;28;20032;-68
2022/10/24 10:22:26;;;;;;;11.00;2.38;;;16.10;99.90;;;;;;5086830;28;20469;-68
2022/10/24 10:24:52;;;;;;;7.82;2.35;;;16.20;99.90;;;;;;5088174;28;20016;-68
2022/10/24 10:27:42;;;;;;;6.80;2.17;;;16.30;99.90;;;;;;5087677;28;20474;-69
2022/10/24 10:30:17;;;;;;;5.60;1.92;;;16.40;99.90;;;;;;5086772;28;20036;-68
2022/10/24 10:33:05;;;;;;;9.55;2.33;;;16.60;99.90;;;;;;5085590;28;20028;-68
2022/10/24 10:35:36;;;;;;;6.13;1.77;;;16.60;99.90;;;;;;5087094;28;20111;-68
2022/10/24 10:38:13;;;;;;;7.18;2.28;;;16.70;99.90;;;;;;5090518;28;20477;-66
2022/10/24 10:40:49;;;;;;;7.20;2.40;;;16.80;99.90;;;;;;5082453;28;20153;-67
2022/10/24 10:43:33;;;;;;;5.22;2.03;;;16.80;99.90;;;;;;5088757;28;20024;-67
2022/10/24 10:46:28;;;;;;;4.97;1.83;;;16.90;99.90;;;;;;5087394;28;20362;-67
2022/10/24 10:49:23;;;;;;;5.88;1.70;;;17.00;99.90;;;;;;5086613;28;20055;-67
2022/10/24 10:52:06;;;;;;;8.35;2.13;;;17.10;99.90;;;;;;5092226;28;20051;-67
2022/10/24 10:54:57;;;;;;;9.23;2.22;;;17.10;99.90;;;;;;5090228;28;20058;-67
2022/10/24 10:57:35;;;;;;;4.25;1.60;;;17.10;99.90;;;;;;5091085;28;20102;-69
2022/10/24 11:00:09;;;;;;;7.22;1.90;;;17.20;99.90;;;;;;5091068;28;20032;-67
2022/10/24 11:02:57;;;;;;;6.72;1.35;;;17.10;99.90;;;;;;5082242;28;20039;-66
2022/10/24 11:05:32;;;;;;;9.38;1.50;;;17.10;99.90;;;;;;5091154;28;20564;-68
2022/10/24 11:08:12;;;;;;;8.85;1.40;;;17.10;99.90;;;;;;5087229;28;20040;-68
2022/10/24 11:10:52;;;;;;;8.00;1.38;;;17.10;99.90;;;;;;5090703;28;20027;-67
2022/10/24 11:13:25;;;;;;;5.77;1.37;;;17.10;99.90;;;;;;5080430;28;20016;-68
2022/10/24 11:15:56;;;;;;;4.50;1.30;;;17.10;99.90;;;;;;5091106;28;20387;-68
2022/10/24 11:18:25;;;;;;;;;;;17.10;99.90;;;;;;5073786;28;20236;-68
2022/10/24 11:21:07;;;;;;;3.92;1.52;;;17.00;99.90;;;;;;5090814;28;19908;-68
2022/10/24 11:24:00;;;;;;;5.43;1.25;;;17.10;99.90;;;;;;5090769;28;20035;-67
2022/10/24 11:26:37;;;;;;;5.43;1.33;;;17.10;99.90;;;;;;5090989;28;20081;-68
2022/10/24 11:29:39;;;;;;;3.72;1.02;;;17.00;99.90;;;;;;5090409;28;20024;-68
2022/10/24 11:32:24;;;;;;;6.75;1.30;;;17.10;99.90;;;;;;5090327;28;20024;-69
2022/10/24 11:35:19;;;;;;;5.75;1.45;;;17.00;99.90;;;;;;5085072;28;20032;-68
2022/10/24 11:37:46;;;;;;;4.93;1.30;;;17.10;99.90;;;;;;5091581;28;20354;-68
2022/10/24 11:40:22;;;;;;;3.72;1.30;;;17.20;99.90;;;;;;5089052;28;20028;-68
2022/10/24 11:43:09;;;;;;;11.27;1.25;;;17.20;99.90;;;;;;5085065;28;20055;-68
2022/10/24 11:45:42;;;;;;;4.75;1.48;;;17.20;99.90;;;;;;5090410;28;20032;-69
2022/10/24 11:48:15;;;;;;;7.03;1.23;;;17.20;99.90;;;;;;5090385;28;20376;-69
2022/10/24 11:50:55;;;;;;;5.18;1.40;;;17.30;99.90;;;;;;5090035;28;20054;-68
2022/10/24 11:53:32;;;;;;;5.65;1.23;;;17.30;99.90;;;;;;5077674;28;20031;-68
2022/10/24 11:56:10;;;;;;;5.07;1.02;;;17.30;99.90;;;;;;5090981;28;20418;-68
2022/10/24 11:58:51;;;;;;;6.55;1.10;;;17.30;99.90;;;;;;5075681;28;20480;-68
2022/10/24 12:01:46;;;;;;;5.07;1.30;;;17.50;99.90;;;;;;5085076;28;20051;-68
2022/10/24 12:04:28;;;;;;;5.80;1.48;;;17.60;99.90;;;;;;5086770;28;20034;-68
2022/10/24 12:07:14;;;;;;;3.60;1.30;;;17.60;99.90;;;;;;5090429;28;20480;-68
2022/10/24 12:10:01;;;;;;;4.07;1.35;;;17.60;99.90;;;;;;5090038;28;20028;-68
2022/10/24 12:12:41;;;;;;;6.18;1.30;;;17.50;99.90;;;;;;5089975;28;20023;-68
2022/10/24 12:15:32;;;;;;;3.28;1.23;;;17.50;99.90;;;;;;5089342;28;20020;-68
2022/10/24 12:18:10;;;;;;;4.75;1.05;;;17.50;99.90;;;;;;5071539;28;20461;-68
2022/10/24 12:20:37;;;;;;;3.78;1.20;;;17.50;99.90;;;;;;5079842;28;20047;-68
2022/10/24 12:23:03;;;;;;;2.90;1.10;;;17.50;99.90;;;;;;5075870;28;20031;-68
2022/10/24 12:25:37;;;;;;;2.72;1.10;;;17.50;99.90;;;;;;5083762;28;20457;-68
2022/10/24 12:28:18;;;;;;;4.05;0.95;;;17.50;99.90;;;;;;5080975;28;20035;-68
2022/10/24 12:31:03;;;;;;;;;;;17.50;99.90;;;;;;5081155;28;20036;-69
2022/10/24 12:33:29;;;;;;;5.38;1.13;;;17.40;99.90;;;;;;5085978;28;19918;-69
2022/10/24 12:35:56;;;;;;;2.28;0.90;;;17.40;99.90;;;;;;5072594;28;20043;-69
2022/10/24 12:38:27;;;;;;;1.90;0.68;;;17.40;99.90;;;;;;5087004;28;20080;-69
2022/10/24 12:41:04;;;;;;;2.20;1.00;;;17.40;99.90;;;;;;5089622;28;20125;-68
2022/10/24 12:43:38;;;;;;;2.05;0.82;;;17.40;99.90;;;;;;5089294;28;20476;-68
2022/10/24 12:46:18;;;;;;;1.25;0.98;;;17.40;99.90;;;;;;5090179;28;20146;-68
2022/10/24 12:48:59;;;;;;;;;;;17.40;99.90;;;;;;5078380;28;20028;-68
2022/10/24 12:51:29;;;;;;;4.25;0.82;;;17.40;99.90;;;;;;5088992;28;20423;-68
2022/10/24 12:54:03;;;;;;;4.18;1.00;;;17.40;99.90;;;;;;5083913;28;20038;-68
2022/10/24 12:56:30;;;;;;;4.45;1.00;;;17.40;99.90;;;;;;5080531;28;20086;-68
2022/10/24 12:58:57;;;;;;;6.10;0.80;;;17.50;99.90;;;;;;5085081;28;20040;-68
2022/10/24 13:01:37;;;;;;;3.25;0.80;;;17.50;99.90;;;;;;5081743;28;20094;-68